createdAt,value
2019-02-03T00:00:28.079Z,0
2019-02-03T00:01:27.957Z,0
2019-02-03T00:02:27.933Z,0
2019-02-03T00:03:27.673Z,0
2019-02-03T00:04:27.910Z,0
2019-02-03T00:05:28.331Z,0
2019-02-03T00:06:27.887Z,0
2019-02-03T00:07:27.869Z,0
2019-02-03T00:08:27.833Z,0
2019-02-03T00:09:27.816Z,0
2019-02-03T00:10:27.792Z,0
2019-02-03T00:11:27.795Z,0
2019-02-03T00:12:27.781Z,0
2019-02-03T00:13:31.013Z,0
2019-02-03T00:14:27.824Z,0
2019-02-03T00:15:27.729Z,0
2019-02-03T00:16:27.709Z,0
2019-02-03T00:17:27.696Z,0
2019-02-03T00:18:27.684Z,0
2019-02-03T00:19:27.664Z,0
2019-02-03T00:20:27.777Z,0
2019-02-03T00:21:27.916Z,0
2019-02-03T00:22:27.950Z,0
2019-02-03T00:23:27.611Z,0
2019-02-03T00:24:27.588Z,0
2019-02-03T00:25:27.582Z,0
2019-02-03T00:26:27.554Z,0
2019-02-03T00:27:27.553Z,0
2019-02-03T00:28:27.547Z,0
2019-02-03T00:29:27.776Z,0
2019-02-03T00:30:28.049Z,0
2019-02-03T00:31:27.614Z,0
2019-02-03T00:32:27.474Z,0
2019-02-03T00:33:27.462Z,0
2019-02-03T00:34:27.439Z,0
2019-02-03T00:35:27.435Z,0
2019-02-03T00:36:27.414Z,0
2019-02-03T00:37:27.407Z,0
2019-02-03T00:38:33.399Z,0
2019-02-03T00:39:27.437Z,0
2019-02-03T00:40:27.544Z,0
2019-02-03T00:41:27.190Z,0
2019-02-03T00:42:27.316Z,0
2019-02-03T00:43:27.314Z,0
2019-02-03T00:44:27.291Z,0
2019-02-03T00:45:27.272Z,0
2019-02-03T00:46:27.949Z,0
2019-02-03T00:47:27.245Z,0
2019-02-03T00:48:27.229Z,0
2019-02-03T00:49:27.219Z,0
2019-02-03T00:50:27.200Z,0
2019-02-03T00:51:27.210Z,0
2019-02-03T00:52:26.932Z,0
2019-02-03T00:53:27.171Z,0
2019-02-03T00:54:27.441Z,0
2019-02-03T00:55:27.501Z,0
2019-02-03T00:56:27.112Z,0
2019-02-03T00:57:27.089Z,0
2019-02-03T00:58:27.084Z,0
2019-02-03T00:59:27.071Z,0
2019-02-03T01:00:27.035Z,0
2019-02-03T01:01:27.037Z,0
2019-02-03T01:02:27.254Z,0
2019-02-03T01:03:29.100Z,0
2019-02-03T01:04:26.991Z,0
2019-02-03T01:05:26.983Z,0
2019-02-03T01:06:26.977Z,0
2019-02-03T01:07:34.566Z,0
2019-02-03T01:08:27.061Z,0
2019-02-03T01:09:26.913Z,0
2019-02-03T01:10:27.194Z,0
2019-02-03T01:11:27.278Z,0
2019-02-03T01:12:26.864Z,0
2019-02-03T01:13:26.861Z,0
2019-02-03T01:14:26.980Z,0
2019-02-03T01:15:26.820Z,0
2019-02-03T01:16:26.814Z,0
2019-02-03T01:17:26.816Z,0
2019-02-03T01:18:26.847Z,0
2019-02-03T01:19:27.470Z,0
2019-02-03T01:20:26.781Z,0
2019-02-03T01:21:26.745Z,0
2019-02-03T01:22:26.812Z,0
2019-02-03T01:23:26.714Z,0
2019-02-03T01:24:26.694Z,0
2019-02-03T01:25:26.683Z,0
2019-02-03T01:26:26.827Z,0
2019-02-03T01:27:27.299Z,0
2019-02-03T01:28:26.632Z,0
2019-02-03T01:29:26.810Z,0
2019-02-03T01:30:26.606Z,0
2019-02-03T01:31:26.585Z,0
2019-02-03T01:32:26.574Z,0
2019-02-03T01:33:26.571Z,0
2019-02-03T01:34:26.535Z,0
2019-02-03T01:35:27.159Z,0
2019-02-03T01:36:26.509Z,0
2019-02-03T01:37:26.494Z,0
2019-02-03T01:38:26.482Z,0
2019-02-03T01:39:26.464Z,0
2019-02-03T01:40:26.450Z,0
2019-02-03T01:41:26.430Z,0
2019-02-03T01:42:26.416Z,0
2019-02-03T01:43:27.015Z,0
2019-02-03T01:44:28.177Z,0
2019-02-03T01:45:26.394Z,0
2019-02-03T01:46:26.371Z,0
2019-02-03T01:47:26.344Z,0
2019-02-03T01:48:26.334Z,0
2019-02-03T01:49:26.319Z,0
2019-02-03T01:50:26.305Z,0
2019-02-03T01:51:27.080Z,0
2019-02-03T01:52:26.266Z,0
2019-02-03T01:53:26.258Z,0
2019-02-03T01:54:26.245Z,0
2019-02-03T01:55:26.276Z,0
2019-02-03T01:56:26.205Z,0
2019-02-03T01:57:26.197Z,0
2019-02-03T01:58:25.949Z,0
2019-02-03T01:59:26.812Z,0
2019-02-03T02:00:26.158Z,0
2019-02-03T02:01:26.132Z,0
2019-02-03T02:02:25.911Z,0
2019-02-03T02:03:26.109Z,0
2019-02-03T02:04:26.089Z,0
2019-02-03T02:05:26.070Z,0
2019-02-03T02:06:26.073Z,0
2019-02-03T02:07:26.602Z,0
2019-02-03T02:08:26.036Z,0
2019-02-03T02:09:26.017Z,0
2019-02-03T02:10:26.003Z,0
2019-02-03T02:11:25.986Z,0
2019-02-03T02:12:25.967Z,0
2019-02-03T02:13:25.954Z,0
2019-02-03T02:14:25.939Z,0
2019-02-03T02:15:26.584Z,0
2019-02-03T02:16:25.952Z,0
2019-02-03T02:17:25.993Z,0
2019-02-03T02:18:26.020Z,0
2019-02-03T02:19:25.862Z,0
2019-02-03T02:20:25.852Z,0
2019-02-03T02:21:25.835Z,0
2019-02-03T02:22:25.825Z,0
2019-02-03T02:23:26.447Z,0
2019-02-03T02:24:25.789Z,0
2019-02-03T02:25:25.774Z,0
2019-02-03T02:26:25.764Z,0
2019-02-03T02:27:25.745Z,0
2019-02-03T02:28:25.729Z,0
2019-02-03T02:29:25.720Z,0
2019-02-03T02:30:25.734Z,0
2019-02-03T02:31:26.113Z,0
2019-02-03T02:32:25.692Z,0
2019-02-03T02:33:25.674Z,0
2019-02-03T02:34:25.650Z,0
2019-02-03T02:35:25.637Z,0
2019-02-03T02:36:25.610Z,0
2019-02-03T02:37:25.601Z,0
2019-02-03T02:38:25.578Z,0
2019-02-03T02:39:25.913Z,0
2019-02-03T02:40:25.593Z,0
2019-02-03T02:41:25.317Z,0
2019-02-03T02:42:25.531Z,0
2019-02-03T02:43:25.512Z,0
2019-02-03T02:44:25.498Z,0
2019-02-03T02:45:25.514Z,0
2019-02-03T02:46:25.462Z,0
2019-02-03T02:47:26.008Z,0
2019-02-03T02:48:25.431Z,0
2019-02-03T02:49:25.422Z,0
2019-02-03T02:50:25.398Z,0
2019-02-03T02:51:25.388Z,0
2019-02-03T02:52:25.379Z,0
2019-02-03T02:53:25.386Z,0
2019-02-03T02:54:25.351Z,0
2019-02-03T02:55:25.992Z,0
2019-02-03T02:56:25.328Z,0
2019-02-03T02:57:25.295Z,0
2019-02-03T02:58:25.315Z,0
2019-02-03T02:59:25.263Z,0
2019-02-03T03:00:25.357Z,0
2019-02-03T03:01:24.996Z,0
2019-02-03T03:02:25.023Z,0
2019-02-03T03:03:25.812Z,0
2019-02-03T03:04:25.202Z,0
2019-02-03T03:05:25.203Z,0
2019-02-03T03:06:25.171Z,0
2019-02-03T03:07:25.147Z,0
2019-02-03T03:08:26.833Z,0
2019-02-03T03:09:25.131Z,0
2019-02-03T03:10:25.116Z,0
2019-02-03T03:11:25.423Z,0
2019-02-03T03:12:24.946Z,0
2019-02-03T03:13:25.088Z,0
2019-02-03T03:14:25.075Z,0
2019-02-03T03:15:25.038Z,0
2019-02-03T03:16:25.045Z,0
2019-02-03T03:17:25.009Z,0
2019-02-03T03:18:24.995Z,0
2019-02-03T03:19:25.193Z,0
2019-02-03T03:20:25.325Z,0
2019-02-03T03:21:24.950Z,0
2019-02-03T03:22:24.939Z,0
2019-02-03T03:23:24.916Z,0
2019-02-03T03:24:24.658Z,0
2019-02-03T03:25:24.894Z,0
2019-02-03T03:26:24.863Z,0
2019-02-03T03:27:25.081Z,0
2019-02-03T03:28:25.227Z,0
2019-02-03T03:29:24.827Z,0
2019-02-03T03:30:25.114Z,0
2019-02-03T03:31:24.847Z,0
2019-02-03T03:32:24.833Z,0
2019-02-03T03:33:25.083Z,0
2019-02-03T03:34:24.759Z,0
2019-02-03T03:35:25.030Z,0
2019-02-03T03:36:25.039Z,0
2019-02-03T03:37:24.894Z,0
2019-02-03T03:38:36.912Z,0
2019-02-03T03:39:24.681Z,0
2019-02-03T03:40:24.684Z,0
2019-02-03T03:41:24.653Z,0
2019-02-03T03:42:24.634Z,0
2019-02-03T03:43:24.737Z,0
2019-02-03T03:44:25.333Z,0
2019-02-03T03:45:24.616Z,0
2019-02-03T03:46:24.574Z,0
2019-02-03T03:47:24.549Z,0
2019-02-03T03:48:24.545Z,0
2019-02-03T03:49:24.559Z,0
2019-02-03T03:50:24.284Z,0
2019-02-03T03:51:24.496Z,0
2019-02-03T03:52:25.163Z,0
2019-02-03T03:53:24.469Z,0
2019-02-03T03:54:24.464Z,0
2019-02-03T03:55:24.463Z,0
2019-02-03T03:56:23.694Z,0
2019-02-03T03:57:24.411Z,0
2019-02-03T03:58:24.520Z,0
2019-02-03T03:59:24.379Z,0
2019-02-03T04:00:24.837Z,0
2019-02-03T04:01:24.353Z,0
2019-02-03T04:02:24.385Z,0
2019-02-03T04:03:24.347Z,0
2019-02-03T04:04:24.325Z,0
2019-02-03T04:05:24.331Z,0
2019-02-03T04:06:24.335Z,0
2019-02-03T04:07:24.273Z,0
2019-02-03T04:08:24.774Z,0
2019-02-03T04:09:24.230Z,0
2019-02-03T04:10:24.254Z,0
2019-02-03T04:11:24.202Z,0
2019-02-03T04:12:24.189Z,0
2019-02-03T04:13:24.173Z,0
2019-02-03T04:14:24.169Z,0
2019-02-03T04:15:24.242Z,0
2019-02-03T04:16:24.818Z,0
2019-02-03T04:17:24.139Z,0
2019-02-03T04:18:24.101Z,0
2019-02-03T04:19:24.089Z,0
2019-02-03T04:20:24.101Z,0
2019-02-03T04:21:24.099Z,0
2019-02-03T04:22:24.044Z,0
2019-02-03T04:23:24.031Z,0
2019-02-03T04:24:24.953Z,0
2019-02-03T04:25:24.001Z,0
2019-02-03T04:26:23.992Z,0
2019-02-03T04:27:23.969Z,0
2019-02-03T04:28:24.018Z,0
2019-02-03T04:29:23.960Z,0
2019-02-03T04:30:24.103Z,0
2019-02-03T04:31:23.909Z,0
2019-02-03T04:32:24.729Z,0
2019-02-03T04:33:23.888Z,0
2019-02-03T04:34:23.891Z,0
2019-02-03T04:35:23.850Z,0
2019-02-03T04:36:24.005Z,0
2019-02-03T04:37:23.813Z,0
2019-02-03T04:38:23.842Z,0
2019-02-03T04:39:23.804Z,0
2019-02-03T04:40:24.635Z,0
2019-02-03T04:41:23.756Z,0
2019-02-03T04:42:23.739Z,0
2019-02-03T04:43:23.730Z,0
2019-02-03T04:44:23.718Z,0
2019-02-03T04:45:27.469Z,0
2019-02-03T04:46:23.684Z,0
2019-02-03T04:47:23.666Z,0
2019-02-03T04:48:24.222Z,0
2019-02-03T04:49:23.643Z,0
2019-02-03T04:50:23.626Z,0
2019-02-03T04:51:23.608Z,0
2019-02-03T04:52:23.606Z,0
2019-02-03T04:53:23.591Z,0
2019-02-03T04:54:23.587Z,0
2019-02-03T04:55:23.550Z,0
2019-02-03T04:56:24.029Z,0
2019-02-03T04:57:23.528Z,0
2019-02-03T04:58:23.509Z,0
2019-02-03T04:59:23.497Z,0
2019-02-03T05:00:23.502Z,0
2019-02-03T05:01:23.459Z,0
2019-02-03T05:02:23.447Z,0
2019-02-03T05:03:23.423Z,0
2019-02-03T05:04:24.050Z,0
2019-02-03T05:05:23.424Z,0
2019-02-03T05:06:23.395Z,0
2019-02-03T05:07:23.373Z,0
2019-02-03T05:08:23.359Z,0
2019-02-03T05:09:23.371Z,0
2019-02-03T05:10:23.333Z,0
2019-02-03T05:11:23.304Z,0
2019-02-03T05:12:23.886Z,0
2019-02-03T05:13:23.280Z,0
2019-02-03T05:14:23.302Z,0
2019-02-03T05:15:23.285Z,0
2019-02-03T05:16:23.238Z,0
2019-02-03T05:17:26.203Z,0
2019-02-03T05:18:23.221Z,0
2019-02-03T05:19:23.196Z,0
2019-02-03T05:20:23.791Z,0
2019-02-03T05:21:23.165Z,0
2019-02-03T05:22:23.148Z,0
2019-02-03T05:23:23.140Z,0
2019-02-03T05:24:23.133Z,0
2019-02-03T05:25:23.165Z,0
2019-02-03T05:26:23.105Z,0
2019-02-03T05:27:23.127Z,0
2019-02-03T05:28:23.758Z,0
2019-02-03T05:29:23.046Z,0
2019-02-03T05:30:23.053Z,0
2019-02-03T05:31:24.920Z,0
2019-02-03T05:32:22.769Z,0
2019-02-03T05:33:23.026Z,0
2019-02-03T05:34:22.979Z,0
2019-02-03T05:35:22.983Z,0
2019-02-03T05:36:23.555Z,0
2019-02-03T05:37:22.948Z,0
2019-02-03T05:38:23.104Z,0
2019-02-03T05:39:32.294Z,0
2019-02-03T05:40:22.896Z,0
2019-02-03T05:41:22.878Z,0
2019-02-03T05:42:22.866Z,0
2019-02-03T05:43:22.858Z,0
2019-02-03T05:44:23.406Z,0
2019-02-03T05:45:22.845Z,0
2019-02-03T05:46:22.829Z,0
2019-02-03T05:47:22.783Z,0
2019-02-03T05:48:23.046Z,0
2019-02-03T05:49:22.754Z,0
2019-02-03T05:50:22.745Z,0
2019-02-03T05:51:22.501Z,0
2019-02-03T05:52:23.387Z,0
2019-02-03T05:53:22.692Z,0
2019-02-03T05:54:22.685Z,0
2019-02-03T05:55:22.708Z,0
2019-02-03T05:56:22.657Z,0
2019-02-03T05:57:22.639Z,0
2019-02-03T05:58:22.624Z,0
2019-02-03T05:59:22.608Z,0
2019-02-03T06:00:22.946Z,0
2019-02-03T06:01:22.889Z,0
2019-02-03T06:02:22.568Z,0
2019-02-03T06:03:22.557Z,0
2019-02-03T06:04:22.305Z,0
2019-02-03T06:05:22.529Z,0
2019-02-03T06:06:22.519Z,0
2019-02-03T06:07:22.494Z,0
2019-02-03T06:08:22.756Z,0
2019-02-03T06:09:22.758Z,0
2019-02-03T06:10:22.464Z,0
2019-02-03T06:11:22.436Z,0
2019-02-03T06:12:22.494Z,0
2019-02-03T06:13:22.413Z,0
2019-02-03T06:14:22.400Z,0
2019-02-03T06:15:22.395Z,0
2019-02-03T06:16:22.509Z,0
2019-02-03T06:17:22.679Z,4
2019-02-03T06:18:22.343Z,4
2019-02-03T06:19:22.325Z,4
2019-02-03T06:20:22.307Z,0
2019-02-03T06:21:22.299Z,4
2019-02-03T06:22:22.282Z,4
2019-02-03T06:23:22.257Z,8
2019-02-03T06:24:22.497Z,4
2019-02-03T06:25:22.855Z,8
2019-02-03T06:26:22.216Z,8
2019-02-03T06:27:22.199Z,8
2019-02-03T06:28:22.201Z,12
2019-02-03T06:29:22.175Z,16
2019-02-03T06:30:22.151Z,16
2019-02-03T06:31:22.197Z,16
2019-02-03T06:32:22.250Z,20
2019-02-03T06:33:22.748Z,20
2019-02-03T06:34:22.106Z,24
2019-02-03T06:35:21.966Z,24
2019-02-03T06:36:22.117Z,28
2019-02-03T06:37:22.089Z,32
2019-02-03T06:38:22.040Z,36
2019-02-03T06:39:22.034Z,40
2019-02-03T06:40:22.018Z,44
2019-02-03T06:41:22.793Z,44
2019-02-03T06:42:21.998Z,52
2019-02-03T06:43:21.982Z,52
2019-02-03T06:44:21.953Z,52
2019-02-03T06:45:21.946Z,64
2019-02-03T06:46:21.921Z,68
2019-02-03T06:47:21.983Z,68
2019-02-03T06:48:21.898Z,72
2019-02-03T06:49:22.742Z,80
2019-02-03T06:50:21.872Z,96
2019-02-03T06:51:21.865Z,112
2019-02-03T06:52:21.834Z,124
2019-02-03T06:53:21.813Z,120
2019-02-03T06:54:21.574Z,108
2019-02-03T06:55:21.545Z,112
2019-02-03T06:56:21.788Z,128
2019-02-03T06:57:22.599Z,168
2019-02-03T06:58:21.742Z,172
2019-02-03T06:59:21.737Z,164
2019-02-03T07:00:21.720Z,156
2019-02-03T07:01:21.709Z,152
2019-02-03T07:02:21.813Z,156
2019-02-03T07:03:21.440Z,160
2019-02-03T07:04:22.052Z,172
2019-02-03T07:05:22.500Z,176
2019-02-03T07:06:21.684Z,180
2019-02-03T07:07:21.614Z,180
2019-02-03T07:08:21.612Z,188
2019-02-03T07:09:21.603Z,196
2019-02-03T07:10:21.580Z,208
2019-02-03T07:11:21.561Z,232
2019-02-03T07:12:21.551Z,240
2019-02-03T07:13:22.179Z,256
2019-02-03T07:14:21.519Z,244
2019-02-03T07:15:21.505Z,240
2019-02-03T07:16:21.492Z,252
2019-02-03T07:17:21.492Z,248
2019-02-03T07:18:21.465Z,264
2019-02-03T07:19:21.451Z,256
2019-02-03T07:20:21.468Z,256
2019-02-03T07:21:22.144Z,268
2019-02-03T07:22:21.407Z,272
2019-02-03T07:23:21.387Z,280
2019-02-03T07:24:21.376Z,288
2019-02-03T07:25:21.365Z,308
2019-02-03T07:26:21.358Z,340
2019-02-03T07:27:21.481Z,352
2019-02-03T07:28:21.320Z,340
2019-02-03T07:29:21.922Z,360
2019-02-03T07:30:21.296Z,392
2019-02-03T07:31:21.264Z,432
2019-02-03T07:32:21.268Z,460
2019-02-03T07:33:21.248Z,432
2019-02-03T07:34:21.225Z,432
2019-02-03T07:35:21.218Z,452
2019-02-03T07:36:21.202Z,548
2019-02-03T07:37:21.779Z,600
2019-02-03T07:38:21.176Z,624
2019-02-03T07:39:21.160Z,672
2019-02-03T07:40:21.149Z,676
2019-02-03T07:41:21.146Z,696
2019-02-03T07:42:21.117Z,732
2019-02-03T07:43:21.111Z,752
2019-02-03T07:44:21.097Z,812
2019-02-03T07:45:21.594Z,824
2019-02-03T07:46:21.055Z,884
2019-02-03T07:47:21.036Z,888
2019-02-03T07:48:21.031Z,944
2019-02-03T07:49:21.012Z,980
2019-02-03T07:50:21.007Z,992
2019-02-03T07:51:20.984Z,1032
2019-02-03T07:52:20.973Z,1108
2019-02-03T07:53:21.573Z,1132
2019-02-03T07:54:20.949Z,1056
2019-02-03T07:55:20.935Z,1028
2019-02-03T07:56:20.917Z,1004
2019-02-03T07:57:20.667Z,1028
2019-02-03T07:58:20.890Z,1068
2019-02-03T07:59:20.865Z,1072
2019-02-03T08:00:20.984Z,1164
2019-02-03T08:01:21.420Z,1216
2019-02-03T08:02:20.837Z,1180
2019-02-03T08:03:20.815Z,1180
2019-02-03T08:04:20.821Z,1096
2019-02-03T08:05:20.789Z,1128
2019-02-03T08:06:20.774Z,1180
2019-02-03T08:07:20.756Z,1064
2019-02-03T08:08:20.744Z,1012
2019-02-03T08:09:21.189Z,984
2019-02-03T08:10:34.473Z,1036
2019-02-03T08:11:20.697Z,928
2019-02-03T08:12:20.458Z,900
2019-02-03T08:13:20.666Z,920
2019-02-03T08:14:20.656Z,912
2019-02-03T08:15:20.634Z,968
2019-02-03T08:16:20.386Z,1024
2019-02-03T08:17:21.170Z,1120
2019-02-03T08:18:20.605Z,1212
2019-02-03T08:19:20.580Z,1192
2019-02-03T08:20:20.594Z,1432
2019-02-03T08:21:20.554Z,1332
2019-02-03T08:22:20.543Z,1304
2019-02-03T08:23:20.538Z,1292
2019-02-03T08:24:20.510Z,1488
2019-02-03T08:25:21.215Z,1480
2019-02-03T08:26:20.247Z,1556
2019-02-03T08:27:20.536Z,1496
2019-02-03T08:28:20.450Z,1384
2019-02-03T08:29:22.039Z,1272
2019-02-03T08:30:20.435Z,1332
2019-02-03T08:31:20.437Z,1236
2019-02-03T08:32:20.640Z,1280
2019-02-03T08:33:20.733Z,1388
2019-02-03T08:34:20.457Z,1468
2019-02-03T08:35:22.488Z,1776
2019-02-03T08:36:20.344Z,1684
2019-02-03T08:37:20.321Z,1624
2019-02-03T08:38:20.313Z,1660
2019-02-03T08:39:20.330Z,1520
2019-02-03T08:40:20.554Z,1548
2019-02-03T08:41:20.618Z,1772
2019-02-03T08:42:20.249Z,1876
2019-02-03T08:43:20.257Z,1800
2019-02-03T08:44:20.246Z,1648
2019-02-03T08:45:20.246Z,1696
2019-02-03T08:46:20.201Z,1836
2019-02-03T08:47:20.182Z,1756
2019-02-03T08:48:20.201Z,1736
2019-02-03T08:49:20.533Z,1752
2019-02-03T08:50:20.133Z,1596
2019-02-03T08:51:20.130Z,1448
2019-02-03T08:52:20.118Z,1364
2019-02-03T08:53:20.099Z,1460
2019-02-03T08:54:20.070Z,1508
2019-02-03T08:55:20.059Z,1512
2019-02-03T08:56:20.238Z,1424
2019-02-03T08:57:20.432Z,1728
2019-02-03T08:58:20.009Z,1964
2019-02-03T08:59:20.006Z,1652
2019-02-03T09:00:19.997Z,1544
2019-02-03T09:01:19.968Z,1428
2019-02-03T09:02:19.963Z,1484
2019-02-03T09:03:19.952Z,1404
2019-02-03T09:04:19.982Z,1512
2019-02-03T09:05:20.626Z,1384
2019-02-03T09:06:19.888Z,1184
2019-02-03T09:07:19.892Z,1112
2019-02-03T09:08:19.882Z,1200
2019-02-03T09:09:19.859Z,1180
2019-02-03T09:10:19.824Z,1164
2019-02-03T09:11:19.823Z,1176
2019-02-03T09:12:22.912Z,1228
2019-02-03T09:13:20.437Z,1188
2019-02-03T09:14:19.775Z,1188
2019-02-03T09:15:22.042Z,1216
2019-02-03T09:16:19.741Z,1244
2019-02-03T09:17:19.728Z,1228
2019-02-03T09:18:19.723Z,1180
2019-02-03T09:19:19.711Z,1172
2019-02-03T09:20:19.905Z,1224
2019-02-03T09:21:19.983Z,1160
2019-02-03T09:22:19.672Z,1168
2019-02-03T09:23:19.656Z,1188
2019-02-03T09:24:19.697Z,1220
2019-02-03T09:25:19.610Z,1464
2019-02-03T09:26:19.590Z,1512
2019-02-03T09:27:19.649Z,1404
2019-02-03T09:28:19.732Z,1324
2019-02-03T09:29:20.286Z,1460
2019-02-03T09:30:19.532Z,1580
2019-02-03T09:31:19.516Z,1400
2019-02-03T09:32:19.507Z,1376
2019-02-03T09:33:19.487Z,1308
2019-02-03T09:34:19.485Z,1388
2019-02-03T09:35:19.465Z,1512
2019-02-03T09:36:19.575Z,1544
2019-02-03T09:37:19.852Z,1436
2019-02-03T09:38:19.418Z,2140
2019-02-03T09:39:19.403Z,2352
2019-02-03T09:40:19.386Z,2160
2019-02-03T09:41:19.381Z,1956
2019-02-03T09:42:19.350Z,1540
2019-02-03T09:43:19.344Z,1608
2019-02-03T09:44:19.541Z,1472
2019-02-03T09:45:19.756Z,1532
2019-02-03T09:46:19.300Z,1716
2019-02-03T09:47:19.299Z,2216
2019-02-03T09:48:19.269Z,1924
2019-02-03T09:49:19.251Z,2096
2019-02-03T09:50:19.235Z,1904
2019-02-03T09:51:19.217Z,1772
2019-02-03T09:52:19.361Z,2120
2019-02-03T09:53:19.523Z,2160
2019-02-03T09:54:19.197Z,2524
2019-02-03T09:55:18.931Z,1760
2019-02-03T09:56:19.148Z,2000
2019-02-03T09:57:19.145Z,2240
2019-02-03T09:58:19.243Z,2448
2019-02-03T09:59:19.097Z,2248
2019-02-03T10:00:19.632Z,2492
2019-02-03T10:01:19.090Z,2156
2019-02-03T10:02:19.059Z,2204
2019-02-03T10:03:19.047Z,2060
2019-02-03T10:04:19.032Z,2012
2019-02-03T10:05:19.011Z,2124
2019-02-03T10:06:19.031Z,2284
2019-02-03T10:07:18.981Z,2316
2019-02-03T10:08:20.848Z,2500
2019-02-03T10:09:18.946Z,2424
2019-02-03T10:10:18.945Z,2092
2019-02-03T10:11:22.566Z,1924
2019-02-03T10:12:18.914Z,2200
2019-02-03T10:13:19.060Z,2240
2019-02-03T10:14:18.886Z,2296
2019-02-03T10:15:18.868Z,2196
2019-02-03T10:16:19.282Z,2596
2019-02-03T10:17:18.840Z,2416
2019-02-03T10:18:18.835Z,2312
2019-02-03T10:19:18.823Z,2256
2019-02-03T10:20:18.787Z,2148
2019-02-03T10:21:18.768Z,2136
2019-02-03T10:22:18.776Z,2116
2019-02-03T10:23:18.742Z,2128
2019-02-03T10:24:18.972Z,2428
2019-02-03T10:25:18.989Z,2484
2019-02-03T10:26:18.702Z,2304
2019-02-03T10:27:18.687Z,2036
2019-02-03T10:28:18.670Z,2056
2019-02-03T10:29:18.658Z,2116
2019-02-03T10:30:18.638Z,2112
2019-02-03T10:31:18.614Z,2080
2019-02-03T10:32:18.801Z,2040
2019-02-03T10:33:19.012Z,2040
2019-02-03T10:34:18.587Z,2264
2019-02-03T10:35:30.168Z,2472
2019-02-03T10:36:18.853Z,2488
2019-02-03T10:37:18.537Z,2320
2019-02-03T10:38:18.658Z,2472
2019-02-03T10:39:18.504Z,2364
2019-02-03T10:40:18.851Z,1928
2019-02-03T10:41:30.793Z,2168
2019-02-03T10:42:18.455Z,2396
2019-02-03T10:43:18.453Z,2788
2019-02-03T10:44:18.430Z,2576
2019-02-03T10:45:18.411Z,3140
2019-02-03T10:46:18.399Z,3332
2019-02-03T10:47:18.382Z,2940
2019-02-03T10:48:18.679Z,3120
2019-02-03T10:49:20.875Z,3376
2019-02-03T10:50:18.346Z,3252
2019-02-03T10:51:18.443Z,3984
2019-02-03T10:52:18.302Z,3592
2019-02-03T10:53:18.300Z,3024
2019-02-03T10:54:18.271Z,2584
2019-02-03T10:55:18.389Z,2756
2019-02-03T10:56:18.690Z,3132
2019-02-03T10:57:18.253Z,2520
2019-02-03T10:58:18.253Z,2172
2019-02-03T10:59:18.213Z,2336
2019-02-03T11:00:25.163Z,1948
2019-02-03T11:01:18.201Z,2084
2019-02-03T11:02:18.183Z,1920
2019-02-03T11:03:18.466Z,2004
2019-02-03T11:04:18.320Z,2176
2019-02-03T11:05:18.149Z,2044
2019-02-03T11:06:18.115Z,2080
2019-02-03T11:07:18.110Z,1924
2019-02-03T11:08:18.085Z,1880
2019-02-03T11:09:18.065Z,1960
2019-02-03T11:10:18.065Z,1944
2019-02-03T11:11:21.257Z,1920
2019-02-03T11:12:18.030Z,1896
2019-02-03T11:13:18.030Z,2216
2019-02-03T11:14:18.023Z,2152
2019-02-03T11:15:17.993Z,2344
2019-02-03T11:16:18.000Z,2612
2019-02-03T11:17:17.970Z,2224
2019-02-03T11:18:17.952Z,2116
2019-02-03T11:19:18.454Z,2060
2019-02-03T11:20:20.804Z,2008
2019-02-03T11:21:17.917Z,2052
2019-02-03T11:22:17.905Z,2012
2019-02-03T11:23:17.892Z,1896
2019-02-03T11:24:17.898Z,1756
2019-02-03T11:25:17.850Z,1656
2019-02-03T11:26:18.182Z,1640
2019-02-03T11:27:17.815Z,1568
2019-02-03T11:28:17.820Z,1844
2019-02-03T11:29:17.827Z,1852
2019-02-03T11:30:17.780Z,1828
2019-02-03T11:31:17.773Z,1544
2019-02-03T11:32:17.750Z,1868
2019-02-03T11:33:17.732Z,1424
2019-02-03T11:34:18.430Z,2128
2019-02-03T11:35:17.730Z,1968
2019-02-03T11:36:17.714Z,2020
2019-02-03T11:37:17.661Z,1636
2019-02-03T11:38:17.676Z,1628
2019-02-03T11:39:17.646Z,1832
2019-02-03T11:40:17.614Z,1996
2019-02-03T11:41:18.130Z,1596
2019-02-03T11:42:17.684Z,2240
2019-02-03T11:43:17.583Z,1928
2019-02-03T11:44:17.558Z,1664
2019-02-03T11:45:17.547Z,1980
2019-02-03T11:46:17.538Z,2172
2019-02-03T11:47:17.519Z,1888
2019-02-03T11:48:17.517Z,2120
2019-02-03T11:49:17.930Z,2060
2019-02-03T11:50:17.470Z,2364
2019-02-03T11:51:17.475Z,1944
2019-02-03T11:52:17.438Z,1880
2019-02-03T11:53:17.432Z,2328
2019-02-03T11:54:17.414Z,2112
2019-02-03T11:55:17.394Z,2108
2019-02-03T11:56:17.381Z,2568
2019-02-03T11:57:17.789Z,2508
2019-02-03T11:58:17.343Z,2432
2019-02-03T11:59:17.314Z,2292
2019-02-03T12:00:17.312Z,2092
2019-02-03T12:01:19.193Z,2096
2019-02-03T12:02:17.270Z,2188
2019-02-03T12:03:17.274Z,2148
2019-02-03T12:04:17.239Z,2140
2019-02-03T12:05:17.563Z,2036
2019-02-03T12:06:17.533Z,1904
2019-02-03T12:07:17.194Z,2020
2019-02-03T12:08:17.189Z,1848
2019-02-03T12:09:17.174Z,1896
2019-02-03T12:10:17.142Z,1664
2019-02-03T12:11:17.269Z,1532
2019-02-03T12:12:17.121Z,1728
2019-02-03T12:13:17.108Z,1808
2019-02-03T12:14:17.577Z,2320
2019-02-03T12:15:17.093Z,2220
2019-02-03T12:16:17.060Z,2088
2019-02-03T12:17:17.176Z,1788
2019-02-03T12:18:17.040Z,1788
2019-02-03T12:19:17.013Z,1828
2019-02-03T12:20:17.021Z,1908
2019-02-03T12:21:16.988Z,1836
2019-02-03T12:22:17.598Z,2044
2019-02-03T12:23:16.946Z,1992
2019-02-03T12:24:16.955Z,2068
2019-02-03T12:25:16.928Z,2284
2019-02-03T12:26:16.909Z,2244
2019-02-03T12:27:16.902Z,2000
2019-02-03T12:28:16.913Z,2040
2019-02-03T12:29:16.872Z,2340
2019-02-03T12:30:17.328Z,2376
2019-02-03T12:31:16.837Z,2324
2019-02-03T12:32:16.829Z,2300
2019-02-03T12:33:16.802Z,2400
2019-02-03T12:34:16.791Z,2412
2019-02-03T12:35:19.490Z,2612
2019-02-03T12:36:16.782Z,2720
2019-02-03T12:37:16.753Z,2628
2019-02-03T12:38:17.208Z,2708
2019-02-03T12:39:16.718Z,2684
2019-02-03T12:40:16.710Z,2800
2019-02-03T12:41:16.684Z,2768
2019-02-03T12:42:20.626Z,2472
2019-02-03T12:43:16.652Z,2380
2019-02-03T12:44:16.645Z,2588
2019-02-03T12:45:16.623Z,2640
2019-02-03T12:46:16.807Z,2440
2019-02-03T12:47:19.068Z,2504
2019-02-03T12:48:16.350Z,2488
2019-02-03T12:49:16.569Z,2604
2019-02-03T12:50:16.551Z,2328
2019-02-03T12:51:16.543Z,2220
2019-02-03T12:52:16.520Z,2488
2019-02-03T12:53:16.763Z,2364
2019-02-03T12:54:16.622Z,2304
2019-02-03T12:55:17.108Z,2216
2019-02-03T12:56:16.472Z,2164
2019-02-03T12:57:16.457Z,2244
2019-02-03T12:58:19.340Z,2524
2019-02-03T12:59:16.457Z,2600
2019-02-03T13:00:16.412Z,2760
2019-02-03T13:01:16.399Z,2768
2019-02-03T13:02:16.991Z,2588
2019-02-03T13:03:16.372Z,2468
2019-02-03T13:04:16.352Z,2476
2019-02-03T13:05:16.641Z,2220
2019-02-03T13:06:16.317Z,2180
2019-02-03T13:07:16.301Z,2148
2019-02-03T13:08:16.288Z,2108
2019-02-03T13:09:16.281Z,2040
2019-02-03T13:10:23.606Z,1788
2019-02-03T13:11:16.243Z,1992
2019-02-03T13:12:27.630Z,1724
2019-02-03T13:13:16.209Z,1908
2019-02-03T13:14:16.199Z,2160
2019-02-03T13:15:16.184Z,2252
2019-02-03T13:16:20.273Z,2504
2019-02-03T13:17:16.165Z,2532
2019-02-03T13:18:16.430Z,2408
2019-02-03T13:19:18.363Z,1972
2019-02-03T13:20:16.111Z,2020
2019-02-03T13:21:16.112Z,2224
2019-02-03T13:22:16.081Z,2348
2019-02-03T13:23:16.076Z,2592
2019-02-03T13:24:18.563Z,2284
2019-02-03T13:25:16.028Z,2180
2019-02-03T13:26:16.008Z,2628
2019-02-03T13:27:16.669Z,2504
2019-02-03T13:28:15.986Z,2604
2019-02-03T13:29:15.976Z,2520
2019-02-03T13:30:15.957Z,2440
2019-02-03T13:31:16.085Z,2364
2019-02-03T13:32:18.189Z,2552
2019-02-03T13:33:15.906Z,2436
2019-02-03T13:34:15.883Z,2296
2019-02-03T13:35:16.478Z,2320
2019-02-03T13:36:15.851Z,2360
2019-02-03T13:37:15.838Z,1932
2019-02-03T13:38:15.824Z,1876
2019-02-03T13:39:15.921Z,1888
2019-02-03T13:40:15.805Z,1992
2019-02-03T13:41:15.787Z,2112
2019-02-03T13:42:15.768Z,1960
2019-02-03T13:43:16.425Z,1932
2019-02-03T13:44:15.731Z,1892
2019-02-03T13:45:27.913Z,1932
2019-02-03T13:46:15.710Z,1924
2019-02-03T13:47:15.693Z,2100
2019-02-03T13:48:15.678Z,1952
2019-02-03T13:49:15.661Z,1760
2019-02-03T13:50:15.648Z,1872
2019-02-03T13:51:16.297Z,2024
2019-02-03T13:52:15.608Z,1904
2019-02-03T13:53:15.692Z,1680
2019-02-03T13:54:15.582Z,1616
2019-02-03T13:55:15.564Z,1524
2019-02-03T13:56:15.559Z,1608
2019-02-03T13:57:15.544Z,1456
2019-02-03T13:58:15.522Z,1560
2019-02-03T13:59:15.651Z,1580
2019-02-03T14:00:16.141Z,1436
2019-02-03T14:01:15.477Z,1516